createdAt,value
2019-04-06T00:00:57.600Z,48.83
2019-04-06T00:03:28.528Z,48.20
2019-04-06T00:05:59.660Z,47.10
2019-04-06T00:08:30.555Z,48.87
2019-04-06T00:11:01.499Z,49.70
2019-04-06T00:13:32.283Z,47.57
2019-04-06T00:16:03.218Z,50.60
2019-04-06T00:18:34.070Z,49.18
2019-04-06T00:21:05.075Z,49.93
2019-04-06T00:23:35.981Z,48.97
2019-04-06T00:26:06.939Z,47.60
2019-04-06T00:28:37.789Z,47.73
2019-04-06T00:31:17.712Z,47.30
2019-04-06T00:33:48.872Z,47.80
2019-04-06T00:36:19.728Z,49.07
2019-04-06T00:38:50.566Z,47.33
2019-04-06T00:41:21.501Z,46.77
2019-04-06T00:43:52.360Z,48.07
2019-04-06T00:46:23.308Z,48.43
2019-04-06T00:48:54.398Z,45.23
2019-04-06T00:51:25.527Z,44.57
2019-04-06T00:53:56.674Z,44.87
2019-04-06T00:56:27.597Z,46.90
2019-04-06T00:58:59.659Z,42.27
2019-04-06T01:01:31.411Z,43.87
2019-04-06T01:04:03.449Z,47.03
2019-04-06T01:06:34.713Z,46.23
2019-04-06T01:09:08.558Z,47.03
2019-04-06T01:11:39.496Z,43.37
2019-04-06T01:14:10.352Z,45.27
2019-04-06T01:16:41.266Z,46.50
2019-04-06T01:19:12.556Z,44.90
2019-04-06T01:21:43.478Z,44.77
2019-04-06T01:24:14.720Z,46.15
2019-04-06T01:26:45.577Z,43.77
2019-04-06T01:29:16.773Z,45.60
2019-04-06T01:31:47.912Z,44.80
2019-04-06T01:34:18.807Z,43.40
2019-04-06T01:36:49.801Z,41.97
2019-04-06T01:39:21.147Z,41.57
2019-04-06T01:41:52.392Z,41.47
2019-04-06T01:44:26.214Z,41.60
2019-04-06T01:46:57.123Z,44.03
2019-04-06T01:49:27.969Z,42.50
2019-04-06T01:51:59.178Z,41.67
2019-04-06T01:54:30.303Z,43.07
2019-04-06T01:57:01.543Z,44.83
2019-04-06T01:59:32.831Z,44.17
2019-04-06T02:02:18.194Z,44.00
2019-04-06T02:04:49.397Z,41.80
2019-04-06T02:07:20.384Z,41.63
2019-04-06T02:09:51.400Z,41.55
2019-04-06T02:12:22.484Z,41.33
2019-04-06T02:14:53.375Z,39.43
2019-04-06T02:17:24.585Z,41.92
2019-04-06T02:19:55.451Z,40.37
2019-04-06T02:22:26.571Z,41.70
2019-04-06T02:24:57.727Z,41.13
2019-04-06T02:27:29.359Z,38.00
2019-04-06T02:30:18.576Z,39.73
2019-04-06T02:33:07.324Z,39.33
2019-04-06T02:36:00.019Z,38.10
2019-04-06T02:38:48.767Z,38.65
2019-04-06T02:41:37.871Z,38.57
2019-04-06T02:44:09.528Z,34.77
2019-04-06T02:46:40.455Z,33.23
2019-04-06T02:49:11.552Z,35.13
2019-04-06T02:51:42.460Z,33.30
2019-04-06T02:54:13.578Z,32.97
2019-04-06T02:56:47.961Z,31.73
2019-04-06T02:59:19.293Z,31.40
2019-04-06T03:01:50.424Z,30.92
2019-04-06T03:04:21.266Z,29.03
2019-04-06T03:06:52.327Z,28.43
2019-04-06T03:09:23.627Z,28.57
2019-04-06T03:11:54.497Z,26.63
2019-04-06T03:14:25.349Z,28.73
2019-04-06T03:16:56.188Z,28.30
2019-04-06T03:19:27.258Z,29.80
2019-04-06T03:21:58.050Z,28.57
2019-04-06T03:24:29.369Z,28.47
2019-04-06T03:27:02.625Z,27.77
2019-04-06T03:29:33.081Z,28.40
2019-04-06T03:32:04.499Z,28.00
2019-04-06T03:34:35.739Z,25.77
2019-04-06T03:37:06.594Z,24.87
2019-04-06T03:39:37.521Z,25.23
2019-04-06T03:42:10.636Z,26.50
2019-04-06T03:44:40.900Z,25.50
2019-04-06T03:47:11.737Z,27.47
2019-04-06T03:49:42.962Z,25.77
2019-04-06T03:52:13.770Z,24.87
2019-04-06T03:54:44.937Z,29.57
2019-04-06T03:57:17.301Z,30.95
2019-04-06T03:59:48.640Z,29.13
2019-04-06T04:02:19.474Z,29.43
2019-04-06T04:04:50.310Z,31.47
2019-04-06T04:07:21.148Z,31.30
2019-04-06T04:09:52.009Z,31.48
2019-04-06T04:12:22.952Z,32.27
2019-04-06T04:14:53.861Z,29.70
2019-04-06T04:17:26.056Z,30.30
2019-04-06T04:19:56.895Z,30.03
2019-04-06T04:22:28.275Z,29.20
2019-04-06T04:24:59.129Z,29.20
2019-04-06T04:27:30.939Z,30.52
2019-04-06T04:30:02.276Z,29.07
2019-04-06T04:32:33.509Z,29.53
2019-04-06T04:35:04.491Z,29.47
2019-04-06T04:37:35.274Z,28.60
2019-04-06T04:40:06.285Z,26.90
2019-04-06T04:42:38.410Z,26.02
2019-04-06T04:45:09.380Z,25.60
2019-04-06T04:47:40.326Z,25.13
2019-04-06T04:50:11.423Z,25.33
2019-04-06T04:52:42.506Z,25.90
2019-04-06T04:55:13.637Z,23.33
2019-04-06T04:57:45.668Z,23.13
2019-04-06T05:00:17.920Z,23.73
2019-04-06T05:02:48.979Z,23.20
2019-04-06T05:05:20.061Z,22.80
2019-04-06T05:07:51.481Z,25.03
2019-04-06T05:10:22.560Z,24.93
2019-04-06T05:12:53.574Z,26.95
2019-04-06T05:15:58.995Z,28.50
2019-04-06T05:18:29.856Z,26.97
2019-04-06T05:21:00.695Z,28.20
2019-04-06T05:23:31.979Z,27.60
2019-04-06T05:26:02.801Z,28.27
2019-04-06T05:28:33.640Z,27.87
2019-04-06T05:31:04.615Z,28.53
2019-04-06T05:33:36.147Z,26.93
2019-04-06T05:36:07.267Z,28.60
2019-04-06T05:38:38.992Z,27.33
2019-04-06T05:41:09.806Z,29.67
2019-04-06T05:43:40.824Z,29.17
2019-04-06T05:46:11.831Z,27.65
2019-04-06T05:48:43.812Z,28.75
2019-04-06T05:51:14.890Z,26.17
2019-04-06T05:53:45.730Z,27.60
2019-04-06T05:56:16.544Z,26.90
2019-04-06T05:58:47.934Z,27.27
2019-04-06T06:01:19.466Z,27.13
2019-04-06T06:03:50.802Z,23.83
2019-04-06T06:06:21.855Z,27.00
2019-04-06T06:08:52.667Z,27.47
2019-04-06T06:11:23.976Z,27.13
2019-04-06T06:13:55.034Z,27.03
2019-04-06T06:16:27.166Z,28.90
2019-04-06T06:18:58.842Z,28.05
2019-04-06T06:21:30.069Z,26.33
2019-04-06T06:24:01.292Z,26.68
2019-04-06T06:26:32.192Z,26.27
2019-04-06T06:29:03.279Z,27.40
2019-04-06T06:31:34.299Z,27.50
2019-04-06T06:34:09.370Z,27.87
2019-04-06T06:36:40.617Z,27.43
2019-04-06T06:39:11.457Z,26.00
2019-04-06T06:41:42.549Z,26.27
2019-04-06T06:44:13.741Z,24.37
2019-04-06T06:46:44.618Z,26.87
2019-04-06T06:49:15.493Z,26.17
2019-04-06T06:51:46.400Z,24.77
2019-04-06T06:54:17.745Z,23.80
2019-04-06T06:56:48.557Z,21.97
2019-04-06T06:59:20.190Z,23.77
2019-04-06T07:01:51.005Z,27.07
2019-04-06T07:04:21.932Z,27.10
2019-04-06T07:06:53.004Z,24.73
2019-04-06T07:09:23.831Z,25.53
2019-04-06T07:11:54.873Z,25.73
2019-04-06T07:14:25.761Z,25.37
2019-04-06T07:16:56.608Z,23.35
2019-04-06T07:19:27.444Z,23.77
2019-04-06T07:21:58.662Z,22.97
2019-04-06T07:24:29.539Z,24.00
2019-04-06T07:27:00.834Z,23.70
2019-04-06T07:29:31.925Z,24.60
2019-04-06T07:32:03.058Z,24.53
2019-04-06T07:34:34.386Z,24.33
2019-04-06T07:37:05.214Z,24.30
2019-04-06T07:39:36.069Z,23.95
2019-04-06T07:42:06.910Z,27.35
2019-04-06T07:44:38.031Z,25.67
2019-04-06T07:47:09.210Z,25.23
2019-04-06T07:49:40.382Z,25.10
2019-04-06T07:52:11.473Z,26.60
2019-04-06T07:54:42.492Z,26.20
2019-04-06T07:57:13.733Z,26.87
2019-04-06T07:59:44.794Z,30.00
2019-04-06T08:02:15.766Z,29.60
2019-04-06T08:04:46.687Z,30.70
2019-04-06T08:07:17.649Z,29.00
2019-04-06T08:09:48.809Z,31.73
2019-04-06T08:12:20.014Z,31.10
2019-04-06T08:14:51.853Z,30.32
2019-04-06T08:17:22.783Z,31.07
2019-04-06T08:19:53.686Z,32.20
2019-04-06T08:22:24.609Z,29.55
2019-04-06T08:24:55.757Z,26.70
2019-04-06T08:27:26.687Z,30.05
2019-04-06T08:29:58.905Z,27.60
2019-04-06T08:32:30.350Z,30.73
2019-04-06T08:35:01.306Z,29.27
2019-04-06T08:37:32.192Z,29.40
2019-04-06T08:40:05.319Z,30.75
2019-04-06T08:42:36.271Z,32.70
2019-04-06T08:45:07.437Z,31.50
2019-04-06T08:47:39.409Z,33.30
2019-04-06T08:50:10.438Z,33.40
2019-04-06T08:52:41.586Z,33.03
2019-04-06T08:55:12.653Z,34.03
2019-04-06T08:57:43.664Z,33.60
2019-04-06T09:00:14.993Z,33.87
2019-04-06T09:02:46.383Z,31.90
2019-04-06T09:05:17.422Z,33.00
2019-04-06T09:07:48.237Z,32.63
2019-04-06T09:10:19.062Z,34.33
2019-04-06T09:12:50.121Z,34.20
2019-04-06T09:15:20.986Z,33.57
2019-04-06T09:17:53.608Z,33.13
2019-04-06T09:20:24.476Z,35.33
2019-04-06T09:22:56.297Z,32.00
2019-04-06T09:25:27.547Z,32.60
2019-04-06T09:27:59.412Z,32.90
2019-04-06T09:30:30.527Z,33.48
2019-04-06T09:33:01.433Z,34.03
2019-04-06T09:35:32.553Z,35.83
2019-04-06T09:38:04.136Z,34.30
2019-04-06T09:40:34.906Z,34.10
2019-04-06T09:43:05.818Z,34.45
2019-04-06T09:45:49.291Z,34.43
2019-04-06T09:48:30.659Z,35.37
2019-04-06T09:51:17.634Z,35.17
2019-04-06T09:54:08.529Z,35.87
2019-04-06T09:57:04.658Z,34.33
2019-04-06T09:59:51.071Z,35.40
2019-04-06T10:02:28.125Z,34.88
2019-04-06T10:05:08.943Z,35.73
2019-04-06T10:07:55.460Z,36.53
2019-04-06T10:10:35.262Z,36.07
2019-04-06T10:13:24.737Z,34.43
2019-04-06T10:16:02.983Z,34.83
2019-04-06T10:19:02.112Z,34.97
2019-04-06T10:21:58.846Z,35.23
2019-04-06T10:24:47.903Z,36.10
2019-04-06T10:27:27.892Z,35.17
2019-04-06T10:30:11.552Z,36.43
2019-04-06T10:32:48.400Z,34.90
2019-04-06T10:35:34.351Z,33.00
2019-04-06T10:38:23.906Z,35.63
2019-04-06T10:41:26.194Z,35.83
2019-04-06T10:44:09.879Z,33.60
2019-04-06T10:46:47.618Z,35.63
2019-04-06T10:49:40.035Z,35.43
2019-04-06T10:52:33.320Z,34.57
2019-04-06T10:55:17.555Z,35.10
2019-04-06T10:57:56.476Z,36.47
2019-04-06T11:00:55.363Z,35.03
2019-04-06T11:03:31.956Z,36.57
2019-04-06T11:06:20.869Z,35.30
2019-04-06T11:09:13.916Z,35.27
2019-04-06T11:12:02.676Z,35.43
2019-04-06T11:15:05.015Z,34.97
2019-04-06T11:17:54.017Z,33.83
2019-04-06T11:20:48.385Z,36.30
2019-04-06T11:23:35.557Z,34.97
2019-04-06T11:26:26.700Z,36.67
2019-04-06T11:29:17.030Z,35.90
2019-04-06T11:32:09.946Z,35.23
2019-04-06T11:34:52.070Z,33.83
2019-04-06T11:37:45.248Z,34.90
2019-04-06T11:40:42.189Z,33.87
2019-04-06T11:43:30.787Z,34.77
2019-04-06T11:46:10.928Z,33.67
2019-04-06T11:48:52.440Z,36.03
2019-04-06T11:51:41.345Z,32.93
2019-04-06T11:54:29.898Z,33.83
2019-04-06T11:57:08.881Z,33.30
2019-04-06T12:00:02.542Z,32.90
2019-04-06T12:02:48.728Z,34.23
2019-04-06T12:05:38.907Z,34.63
2019-04-06T12:08:27.888Z,34.00
2019-04-06T12:11:09.283Z,32.73
2019-04-06T12:13:51.549Z,34.70
2019-04-06T12:16:32.197Z,33.17
2019-04-06T12:19:17.323Z,34.60
2019-04-06T12:22:22.538Z,32.80
2019-04-06T12:25:15.814Z,32.63
2019-04-06T12:28:08.187Z,30.83
2019-04-06T12:30:49.216Z,28.73
2019-04-06T12:33:38.929Z,29.53
2019-04-06T12:36:17.344Z,29.23
2019-04-06T12:39:14.158Z,28.10
2019-04-06T12:42:02.923Z,29.13
2019-04-06T12:44:44.708Z,28.98
2019-04-06T12:47:34.256Z,29.07
2019-04-06T12:50:28.863Z,27.60
2019-04-06T12:53:12.639Z,28.80
2019-04-06T12:56:10.614Z,25.97
2019-04-06T12:58:59.659Z,27.58
2019-04-06T13:01:37.048Z,27.67
2019-04-06T13:04:20.056Z,25.70
2019-04-06T13:07:13.067Z,26.27
2019-04-06T13:10:11.395Z,24.37
2019-04-06T13:13:03.453Z,21.85
2019-04-06T13:15:53.845Z,22.42
2019-04-06T13:18:34.532Z,22.37
2019-04-06T13:21:19.553Z,21.33
2019-04-06T13:23:58.442Z,20.43
2019-04-06T13:26:51.103Z,20.80
2019-04-06T13:29:29.154Z,20.60
2019-04-06T13:32:18.119Z,21.83
2019-04-06T13:35:11.603Z,19.60
2019-04-06T13:37:54.736Z,19.07
2019-04-06T13:40:43.741Z,19.43
2019-04-06T13:43:36.377Z,17.97
2019-04-06T13:46:24.866Z,17.82
2019-04-06T13:49:06.845Z,17.30
2019-04-06T13:51:47.032Z,17.73
2019-04-06T13:54:35.478Z,18.30
2019-04-06T13:57:34.698Z,17.87
2019-04-06T14:00:34.799Z,17.53
2019-04-06T14:03:24.713Z,18.77
2019-04-06T14:06:14.194Z,19.70
2019-04-06T14:09:00.698Z,18.33
2019-04-06T14:11:52.417Z,18.17
2019-04-06T14:14:42.151Z,19.20
2019-04-06T14:17:27.216Z,19.93
2019-04-06T14:20:19.334Z,17.53
2019-04-06T14:23:09.239Z,15.60
2019-04-06T14:26:17.667Z,11.70
2019-04-06T14:28:58.590Z,9.67
2019-04-06T14:31:42.030Z,9.90
2019-04-06T14:34:45.864Z,10.90
2019-04-06T14:37:23.197Z,10.35
2019-04-06T14:40:12.926Z,9.50
2019-04-06T14:42:55.492Z,9.73
2019-04-06T14:45:34.933Z,9.57
2019-04-06T14:48:27.960Z,10.57
2019-04-06T14:51:12.691Z,10.73
2019-04-06T14:53:48.204Z,12.05
2019-04-06T14:56:24.387Z,12.03
2019-04-06T14:59:13.501Z,14.03
2019-04-06T15:02:10.313Z,14.85
2019-04-06T15:05:06.775Z,14.15
2019-04-06T15:07:57.092Z,14.83
2019-04-06T15:10:54.563Z,16.37
2019-04-06T15:13:54.198Z,16.87
2019-04-06T15:16:47.094Z,15.80
2019-04-06T15:19:37.986Z,15.60
2019-04-06T15:22:19.794Z,15.55
2019-04-06T15:25:03.803Z,15.97
2019-04-06T15:27:49.902Z,16.23
2019-04-06T15:30:51.898Z,17.23
2019-04-06T15:33:40.656Z,16.13
2019-04-06T15:36:33.979Z,16.65
2019-04-06T15:39:16.976Z,16.25
2019-04-06T15:41:57.396Z,16.33
2019-04-06T15:44:50.395Z,16.60
2019-04-06T15:47:40.254Z,15.83
2019-04-06T15:50:22.301Z,12.53
2019-04-06T15:53:27.784Z,11.13
2019-04-06T15:56:29.953Z,10.67
2019-04-06T15:59:20.250Z,10.40
2019-04-06T16:02:12.195Z,10.63
2019-04-06T16:04:52.272Z,9.98
2019-04-06T16:07:33.608Z,11.27
2019-04-06T16:10:12.699Z,11.40
2019-04-06T16:12:53.012Z,11.77
2019-04-06T16:15:40.735Z,11.53
2019-04-06T16:18:35.909Z,11.17
2019-04-06T16:21:31.312Z,12.40
2019-04-06T16:24:21.869Z,12.13
2019-04-06T16:27:01.254Z,12.60
2019-04-06T16:29:54.005Z,12.00
2019-04-06T16:32:34.267Z,12.57
2019-04-06T16:35:23.536Z,12.53
2019-04-06T16:38:12.490Z,13.43
2019-04-06T16:41:11.451Z,13.47
2019-04-06T16:43:51.273Z,13.38
2019-04-06T16:46:41.428Z,13.27
2019-04-06T16:49:23.362Z,13.80
2019-04-06T16:52:22.086Z,13.93
2019-04-06T16:55:09.341Z,12.90
2019-04-06T16:57:59.793Z,12.53
2019-04-06T17:00:37.674Z,14.13
2019-04-06T17:03:14.290Z,13.25
2019-04-06T17:05:59.931Z,13.87
2019-04-06T17:08:41.264Z,13.37
2019-04-06T17:11:40.425Z,13.35
2019-04-06T17:14:23.017Z,15.23
2019-04-06T17:17:19.760Z,13.77
2019-04-06T17:20:00.825Z,13.00
2019-04-06T17:22:45.261Z,13.48
2019-04-06T17:25:25.636Z,13.43
2019-04-06T17:28:18.330Z,14.37
2019-04-06T17:31:23.406Z,13.70
2019-04-06T17:34:09.836Z,12.43
2019-04-06T17:36:48.194Z,13.23
2019-04-06T17:39:28.793Z,13.50
2019-04-06T17:42:26.078Z,13.93
2019-04-06T17:45:22.060Z,14.07
2019-04-06T17:48:18.457Z,12.80
2019-04-06T17:51:11.419Z,14.60
2019-04-06T17:54:00.610Z,13.80
2019-04-06T17:56:49.925Z,14.17
2019-04-06T17:59:41.491Z,14.13
2019-04-06T18:02:24.545Z,14.95
2019-04-06T18:05:08.119Z,14.20
2019-04-06T18:08:07.167Z,14.90
2019-04-06T18:10:57.094Z,15.58
2019-04-06T18:13:56.551Z,14.60
2019-04-06T18:16:35.614Z,14.47
2019-04-06T18:19:10.217Z,14.47
2019-04-06T18:21:41.266Z,14.17
2019-04-06T18:24:12.099Z,12.40
2019-04-06T18:26:43.266Z,14.57
2019-04-06T18:29:14.591Z,12.83
2019-04-06T18:31:51.508Z,12.88
2019-04-06T18:34:22.913Z,12.93
2019-04-06T18:37:07.013Z,12.37
2019-04-06T18:39:38.226Z,13.88
2019-04-06T18:42:09.625Z,12.70
2019-04-06T18:44:41.103Z,11.83
2019-04-06T18:47:12.094Z,12.55
2019-04-06T18:49:44.278Z,11.80
2019-04-06T18:52:16.775Z,11.00
2019-04-06T18:54:48.699Z,11.80
2019-04-06T18:57:20.943Z,12.05
2019-04-06T18:59:51.897Z,11.90
2019-04-06T19:02:23.866Z,11.83
2019-04-06T19:04:55.247Z,12.63
2019-04-06T19:07:26.331Z,11.73
2019-04-06T19:09:57.613Z,13.48
2019-04-06T19:12:29.212Z,12.67
2019-04-06T19:15:00.245Z,12.43
2019-04-06T19:17:31.991Z,12.67
2019-04-06T19:20:05.663Z,13.27
2019-04-06T19:22:36.660Z,12.97
2019-04-06T19:25:08.072Z,12.20
2019-04-06T19:27:40.646Z,12.73
2019-04-06T19:30:12.845Z,12.67
2019-04-06T19:32:43.810Z,12.50
2019-04-06T19:35:14.792Z,12.60
2019-04-06T19:37:45.661Z,12.27
2019-04-06T19:40:16.717Z,12.05
2019-04-06T19:42:47.573Z,12.82
2019-04-06T19:45:19.655Z,12.57
2019-04-06T19:47:50.455Z,12.93
2019-04-06T19:50:22.171Z,13.03
2019-04-06T19:52:53.052Z,12.40
2019-04-06T19:55:24.537Z,12.83
2019-04-06T19:57:55.336Z,13.43
2019-04-06T20:00:27.197Z,13.30
2019-04-06T20:02:58.013Z,13.17
2019-04-06T20:05:31.179Z,14.03
2019-04-06T20:08:02.305Z,13.03
2019-04-06T20:10:36.337Z,12.53
2019-04-06T20:13:07.535Z,12.93
2019-04-06T20:15:38.835Z,13.13
2019-04-06T20:18:12.388Z,13.62
2019-04-06T20:20:43.194Z,12.37
2019-04-06T20:23:14.057Z,13.38
2019-04-06T20:25:45.298Z,14.17
2019-04-06T20:28:16.282Z,14.13
2019-04-06T20:30:47.739Z,13.40
2019-04-06T20:33:20.528Z,13.87
2019-04-06T20:35:52.116Z,13.70
2019-04-06T20:38:23.513Z,13.83
2019-04-06T20:40:54.389Z,13.80
2019-04-06T20:43:25.802Z,14.57
2019-04-06T20:45:58.011Z,14.37
2019-04-06T20:48:29.390Z,15.40
2019-04-06T20:51:00.423Z,14.87
2019-04-06T20:53:31.970Z,14.53
2019-04-06T20:56:03.440Z,13.80
2019-04-06T20:58:34.714Z,14.83
2019-04-06T21:01:06.832Z,13.67
2019-04-06T21:03:37.921Z,15.30
2019-04-06T21:06:08.937Z,13.70
2019-04-06T21:08:40.172Z,13.40
2019-04-06T21:11:12.857Z,14.78
2019-04-06T21:13:44.269Z,13.97
2019-04-06T21:16:15.309Z,14.43
2019-04-06T21:18:46.963Z,14.33
2019-04-06T21:21:19.416Z,14.27
2019-04-06T21:23:50.389Z,14.30
2019-04-06T21:26:21.578Z,15.70
2019-04-06T21:28:53.073Z,13.27
2019-04-06T21:31:24.476Z,13.13
2019-04-06T21:33:55.893Z,13.63
2019-04-06T21:36:27.265Z,13.93
2019-04-06T21:38:58.695Z,13.77
2019-04-06T21:41:35.367Z,14.30
2019-04-06T21:44:07.551Z,12.90
2019-04-06T21:46:40.360Z,14.37
2019-04-06T21:49:11.535Z,13.80
2019-04-06T21:51:42.630Z,13.98
2019-04-06T21:54:14.985Z,13.85
2019-04-06T21:56:45.926Z,14.20
2019-04-06T21:59:17.561Z,13.18
2019-04-06T22:01:50.249Z,14.70
2019-04-06T22:04:25.983Z,14.40
2019-04-06T22:06:54.030Z,14.37
2019-04-06T22:09:25.441Z,15.18
2019-04-06T22:11:56.842Z,13.77
2019-04-06T22:14:29.292Z,14.50
2019-04-06T22:17:00.404Z,13.87
2019-04-06T22:19:31.486Z,13.07
2019-04-06T22:22:03.567Z,13.50
2019-04-06T22:24:34.994Z,14.40
2019-04-06T22:27:06.414Z,14.10
2019-04-06T22:29:38.512Z,13.77
2019-04-06T22:32:09.654Z,13.63
2019-04-06T22:34:41.741Z,13.10
2019-04-06T22:37:13.886Z,13.05
2019-04-06T22:39:45.371Z,13.17
2019-04-06T22:42:16.622Z,14.33
2019-04-06T22:44:47.700Z,14.67
2019-04-06T22:47:18.943Z,14.00
2019-04-06T22:49:50.175Z,13.50
2019-04-06T22:52:21.153Z,14.30
2019-04-06T22:54:52.462Z,13.33
2019-04-06T22:57:23.949Z,12.80
2019-04-06T22:59:56.379Z,13.73
2019-04-06T23:02:28.925Z,13.07
2019-04-06T23:05:06.471Z,13.43
2019-04-06T23:07:37.529Z,13.40
2019-04-06T23:10:09.088Z,13.43
2019-04-06T23:12:40.405Z,14.47
2019-04-06T23:15:11.595Z,13.93
2019-04-06T23:17:42.418Z,13.23
2019-04-06T23:20:13.962Z,13.37
2019-04-06T23:22:45.552Z,13.40
2019-04-06T23:25:16.957Z,13.60
2019-04-06T23:27:48.608Z,13.80
2019-04-06T23:30:19.886Z,13.48
2019-04-06T23:32:52.241Z,13.00
2019-04-06T23:35:23.568Z,13.73
2019-04-06T23:37:54.949Z,14.47
2019-04-06T23:40:25.998Z,13.25
2019-04-06T23:42:56.853Z,13.83
2019-04-06T23:45:27.702Z,13.40
2019-04-06T23:47:59.403Z,14.00
2019-04-06T23:50:30.325Z,14.17
2019-04-06T23:53:01.423Z,12.83
2019-04-06T23:55:32.745Z,14.10
2019-04-06T23:58:03.874Z,13.10
